createdAt,value
2018-03-23T04:05:41.952Z,36.53
2018-03-23T04:08:10.301Z,42.60
2018-03-23T04:10:38.609Z,41.40
2018-03-23T04:13:06.940Z,46.90
2018-03-23T04:15:35.259Z,42.73
2018-03-23T04:18:03.591Z,34.73
2018-03-23T04:20:31.895Z,43.97
2018-03-23T04:23:00.826Z,38.23
2018-03-23T04:34:43.557Z,50.10
2018-03-23T04:37:31.499Z,46.30
2018-03-23T04:39:59.805Z,46.47
2018-03-23T04:42:28.599Z,53.50
2018-03-23T04:44:56.930Z,48.60
2018-03-23T04:47:25.232Z,62.93
2018-03-23T04:49:53.560Z,55.47
2018-03-23T04:52:22.632Z,65.27
2018-03-23T05:03:45.751Z,61.13
2018-03-23T05:12:23.409Z,58.53
2018-03-23T05:14:52.511Z,56.30
2018-03-23T05:17:20.821Z,55.57
2018-03-23T05:19:49.157Z,62.27
2018-03-23T05:22:17.467Z,59.47
2018-03-23T05:27:46.482Z,49.57
2018-03-23T05:30:15.699Z,51.27
2018-03-23T05:32:46.747Z,64.63
2018-03-23T05:35:36.136Z,56.27
2018-03-23T05:41:02.636Z,63.47
2018-03-23T05:43:31.714Z,66.00
2018-03-23T05:46:00.913Z,58.87
2018-03-23T05:48:30.626Z,60.60
2018-03-23T05:50:59.733Z,63.60
2018-03-23T05:53:28.818Z,59.53
2018-03-23T05:55:57.918Z,57.30
2018-03-23T05:58:26.976Z,62.33
2018-03-23T06:00:58.209Z,65.07
2018-03-23T06:03:45.548Z,69.63
2018-03-23T06:06:35.385Z,59.77
2018-03-23T06:09:04.439Z,64.90
2018-03-23T06:11:32.771Z,62.70
2018-03-23T06:14:01.103Z,64.47
2018-03-23T06:16:29.400Z,67.97
2018-03-23T06:18:57.739Z,69.50
2018-03-23T06:21:26.043Z,78.63
2018-03-23T06:23:54.371Z,75.87
2018-03-23T06:32:17.979Z,65.83
2018-03-23T06:34:46.301Z,68.90
2018-03-23T06:37:14.619Z,71.10
2018-03-23T06:39:59.908Z,68.60
2018-03-23T06:42:28.232Z,63.10
2018-03-23T06:44:57.325Z,67.50
2018-03-23T06:47:25.662Z,74.33
2018-03-23T06:49:53.972Z,71.80
2018-03-23T06:52:22.274Z,67.53
2018-03-23T06:58:01.022Z,67.40
2018-03-23T07:09:23.101Z,67.03
2018-03-23T07:11:52.162Z,78.07
2018-03-23T07:14:20.496Z,83.13
2018-03-23T07:16:48.897Z,82.70
2018-03-23T07:19:26.247Z,101.53
2018-03-23T07:25:14.451Z,73.73
2018-03-23T07:27:54.931Z,82.60
2018-03-23T07:33:31.817Z,84.60
2018-03-23T07:38:54.420Z,71.10
2018-03-23T07:41:22.750Z,87.03
2018-03-23T07:43:51.061Z,77.63
2018-03-23T07:46:19.399Z,75.07
2018-03-23T07:48:47.722Z,80.37
2018-03-23T07:51:16.056Z,76.67
2018-03-23T07:53:44.352Z,78.73
2018-03-23T07:56:12.672Z,80.40
2018-03-23T07:58:41.742Z,70.50
2018-03-23T08:01:10.106Z,74.90
2018-03-23T08:03:38.400Z,84.50
2018-03-23T08:06:06.735Z,76.10
2018-03-23T08:08:35.036Z,67.03
2018-03-23T08:11:03.336Z,74.23
2018-03-23T08:13:31.671Z,66.87
2018-03-23T08:15:59.977Z,57.30
2018-03-23T08:18:28.338Z,69.10
2018-03-23T08:20:56.680Z,60.70
2018-03-23T08:23:25.759Z,60.00
2018-03-23T08:25:54.151Z,62.17
2018-03-23T08:28:23.239Z,65.47
2018-03-23T08:30:52.309Z,54.87
2018-03-23T08:33:20.628Z,58.87
2018-03-23T08:35:48.952Z,55.80
2018-03-23T08:38:17.278Z,72.60
2018-03-23T08:40:46.340Z,52.53
2018-03-23T08:43:14.675Z,58.60
2018-03-23T08:45:42.969Z,57.10
2018-03-23T08:48:11.262Z,52.63
2018-03-23T08:50:39.592Z,50.30
2018-03-23T08:53:07.899Z,56.77
2018-03-23T08:55:36.229Z,62.37
2018-03-23T08:58:05.295Z,60.40
2018-03-23T09:00:34.379Z,59.23
2018-03-23T09:03:02.678Z,54.23
2018-03-23T09:05:31.008Z,52.73
2018-03-23T09:07:59.308Z,56.17
2018-03-23T09:10:27.640Z,59.13
2018-03-23T09:12:56.708Z,53.87
2018-03-23T09:15:25.064Z,55.40
2018-03-23T09:17:53.353Z,59.40
2018-03-23T09:20:21.673Z,52.03
2018-03-23T09:22:49.988Z,53.20
2018-03-23T09:25:18.306Z,45.47
2018-03-23T09:27:46.607Z,42.67
2018-03-23T09:30:14.997Z,49.63
2018-03-23T09:32:43.307Z,50.77
2018-03-23T09:35:11.640Z,52.70
2018-03-23T09:37:40.703Z,52.27
2018-03-23T09:40:09.009Z,44.87
2018-03-23T09:42:38.105Z,44.70
2018-03-23T09:45:07.164Z,46.10
2018-03-23T09:47:35.488Z,58.43
2018-03-23T09:50:03.793Z,46.97
2018-03-23T09:52:32.223Z,45.13
2018-03-23T09:55:01.422Z,53.30
2018-03-23T09:57:30.508Z,47.90
2018-03-23T09:59:59.580Z,46.97
2018-03-23T10:02:27.903Z,50.13
2018-03-23T10:04:56.208Z,46.07
2018-03-23T10:07:24.536Z,48.97
2018-03-23T10:09:52.850Z,50.80
2018-03-23T10:12:21.162Z,49.70
2018-03-23T10:14:49.475Z,48.30
2018-03-23T10:17:18.566Z,47.30
2018-03-23T10:19:47.635Z,47.90
2018-03-23T10:22:15.960Z,52.13
2018-03-23T10:24:44.272Z,45.63
2018-03-23T10:27:12.608Z,50.10
2018-03-23T10:29:41.663Z,44.53
2018-03-23T10:32:10.000Z,45.97
2018-03-23T10:34:38.329Z,47.77
2018-03-23T10:37:06.659Z,46.23
2018-03-23T10:39:34.959Z,43.20
2018-03-23T10:42:03.283Z,41.47
2018-03-23T10:44:32.348Z,47.70
2018-03-23T10:47:00.683Z,40.13
2018-03-23T10:49:28.990Z,41.93
2018-03-23T10:51:57.310Z,49.67
2018-03-23T10:54:26.374Z,35.10
2018-03-23T10:56:55.468Z,37.20
2018-03-23T10:59:23.763Z,42.20
2018-03-23T11:01:57.664Z,36.43
2018-03-23T11:04:25.974Z,35.13
2018-03-23T11:06:55.064Z,38.40
2018-03-23T11:09:24.139Z,32.77
2018-03-23T11:11:52.470Z,35.63
2018-03-23T11:14:20.771Z,34.60
2018-03-23T11:16:49.101Z,38.60
2018-03-23T11:19:18.170Z,29.70
2018-03-23T11:21:46.495Z,28.20
2018-03-23T11:24:14.799Z,32.90
2018-03-23T11:26:43.127Z,25.33
2018-03-23T11:29:12.195Z,25.13
2018-03-23T11:31:40.526Z,31.23
2018-03-23T11:34:08.828Z,29.27
2018-03-23T11:36:37.147Z,32.03
2018-03-23T11:39:06.221Z,32.67
2018-03-23T11:41:34.552Z,30.30
2018-03-23T11:44:02.860Z,24.17
2018-03-23T11:46:31.180Z,26.50
2018-03-23T11:49:00.256Z,31.20
2018-03-23T11:51:28.575Z,30.67
2018-03-23T11:53:56.881Z,33.93
2018-03-23T11:56:25.243Z,30.53
2018-03-23T11:58:53.516Z,40.50
2018-03-23T12:01:21.838Z,31.40
2018-03-23T12:03:50.143Z,30.23
2018-03-23T12:06:19.232Z,28.60
2018-03-23T12:08:48.302Z,26.47
2018-03-23T12:11:16.637Z,26.97
2018-03-23T12:13:44.931Z,26.57
2018-03-23T12:16:13.236Z,23.60
2018-03-23T12:18:41.560Z,30.13
2018-03-23T12:21:09.867Z,23.50
2018-03-23T12:23:38.192Z,58.10
2018-03-23T12:26:07.324Z,130.83
2018-03-23T12:28:35.654Z,24.60
2018-03-23T12:31:03.956Z,29.03
2018-03-23T12:33:32.332Z,20.87
2018-03-23T12:36:00.642Z,20.03
2018-03-23T12:38:30.617Z,21.03
2018-03-23T12:41:19.483Z,20.90
2018-03-23T12:44:02.354Z,21.03
2018-03-23T12:49:28.919Z,22.30
2018-03-23T12:51:57.245Z,22.67
2018-03-23T13:03:37.558Z,25.20
2018-03-23T13:06:06.622Z,17.67
2018-03-23T13:08:34.958Z,20.97
2018-03-23T13:11:03.258Z,19.00
2018-03-23T13:13:31.612Z,19.23
2018-03-23T13:15:59.944Z,22.60
2018-03-23T13:18:28.239Z,21.37
2018-03-23T13:20:57.332Z,17.77
2018-03-23T13:23:26.415Z,13.50
2018-03-23T13:28:55.106Z,12.63
2018-03-23T13:31:23.432Z,15.30
2018-03-23T13:33:51.732Z,17.00
2018-03-23T13:36:20.052Z,19.43
2018-03-23T13:38:49.128Z,17.47
2018-03-23T13:41:17.450Z,16.63
2018-03-23T13:43:45.752Z,15.33
2018-03-23T13:46:14.085Z,18.53
2018-03-23T13:48:43.152Z,17.70
2018-03-23T13:51:11.470Z,14.80
2018-03-23T13:53:40.548Z,18.30
2018-03-23T13:56:08.936Z,20.20
2018-03-23T13:58:42.943Z,22.33
2018-03-23T14:01:17.778Z,22.20
2018-03-23T14:03:46.843Z,22.10
2018-03-23T14:06:15.131Z,25.53
2018-03-23T14:08:43.448Z,25.37
2018-03-23T14:11:11.802Z,24.77
2018-03-23T14:13:40.900Z,25.57
2018-03-23T14:16:09.969Z,25.33
2018-03-23T14:18:38.297Z,21.60
2018-03-23T14:21:06.612Z,24.53
2018-03-23T14:23:34.931Z,20.57
2018-03-23T14:26:03.991Z,24.80
2018-03-23T14:28:32.320Z,24.60
2018-03-23T14:31:00.619Z,23.10
2018-03-23T14:33:28.966Z,27.23
2018-03-23T14:35:58.033Z,24.07
2018-03-23T14:38:26.337Z,24.60
2018-03-23T14:40:55.432Z,27.80
2018-03-23T14:43:23.742Z,23.87
2018-03-23T14:45:52.059Z,23.07
2018-03-23T14:48:21.150Z,28.87
2018-03-23T14:50:49.471Z,22.87
2018-03-23T14:53:17.788Z,22.90
2018-03-23T14:55:46.110Z,24.03
2018-03-23T14:58:14.436Z,24.10
2018-03-23T15:00:42.780Z,25.70
2018-03-23T15:03:11.078Z,25.50
2018-03-23T15:05:39.425Z,27.43
2018-03-23T15:08:08.495Z,23.57
2018-03-23T15:10:36.846Z,28.73
2018-03-23T15:13:05.154Z,23.50
2018-03-23T15:15:33.484Z,26.93
2018-03-23T15:18:02.551Z,24.27
2018-03-23T15:20:31.638Z,26.70
2018-03-23T15:23:00.727Z,34.10
2018-03-23T15:25:29.030Z,37.03
2018-03-23T15:27:57.385Z,33.83
2018-03-23T15:30:26.453Z,38.93
2018-03-23T15:32:54.787Z,31.37
2018-03-23T15:35:23.098Z,33.17
2018-03-23T15:37:51.428Z,31.93
2018-03-23T15:40:20.507Z,38.13
2018-03-23T15:42:48.824Z,36.83
2018-03-23T15:45:17.131Z,33.90
2018-03-23T15:47:45.461Z,34.27
2018-03-23T15:50:14.904Z,37.63
2018-03-23T15:52:43.221Z,30.80
2018-03-23T15:55:12.293Z,37.27
2018-03-23T15:57:40.704Z,34.07
2018-03-23T16:00:09.773Z,34.27
2018-03-23T16:02:38.101Z,30.23
2018-03-23T16:05:06.401Z,32.23
2018-03-23T16:07:34.740Z,32.30
2018-03-23T16:10:03.822Z,33.40
2018-03-23T16:12:32.918Z,32.80
2018-03-23T16:15:01.208Z,29.90
2018-03-23T16:17:30.290Z,40.30
2018-03-23T16:19:59.360Z,32.80
2018-03-23T16:22:27.684Z,34.33
2018-03-23T16:24:55.999Z,33.53
2018-03-23T16:27:24.338Z,29.60
2018-03-23T16:29:52.640Z,33.90
2018-03-23T16:32:20.951Z,36.40
2018-03-23T16:34:49.375Z,41.33
2018-03-23T16:37:17.672Z,35.00
2018-03-23T16:39:45.994Z,33.67
2018-03-23T16:42:14.295Z,41.07
2018-03-23T16:44:43.383Z,34.90
2018-03-23T16:47:12.449Z,36.20
2018-03-23T16:49:40.800Z,35.13
2018-03-23T16:52:09.095Z,30.73
2018-03-23T16:54:37.428Z,29.30
2018-03-23T16:57:05.728Z,33.07
2018-03-23T16:59:34.051Z,31.43
2018-03-23T17:02:02.350Z,33.37
2018-03-23T17:04:31.439Z,30.67
2018-03-23T17:07:00.508Z,33.60
2018-03-23T17:09:30.361Z,41.57
2018-03-23T17:11:59.436Z,35.10
2018-03-23T17:14:27.755Z,34.03
2018-03-23T17:16:56.069Z,33.73
2018-03-23T17:19:24.390Z,33.80
2018-03-23T17:21:52.699Z,37.90
2018-03-23T17:24:21.033Z,33.93
2018-03-23T17:26:50.143Z,39.50
2018-03-23T17:29:19.211Z,32.60
2018-03-23T17:31:47.520Z,33.13
2018-03-23T17:34:15.851Z,31.77
2018-03-23T17:36:44.154Z,35.70
2018-03-23T17:39:12.472Z,37.67
2018-03-23T17:41:40.778Z,32.40
2018-03-23T17:44:09.105Z,40.10
2018-03-23T17:46:37.419Z,39.27
2018-03-23T17:49:05.742Z,39.70
2018-03-23T17:51:34.813Z,38.23
2018-03-23T17:54:03.135Z,34.17
2018-03-23T17:56:31.439Z,34.90
2018-03-23T17:58:59.764Z,35.27
2018-03-23T18:01:28.172Z,38.20
2018-03-23T18:03:56.508Z,39.70
2018-03-23T18:06:24.867Z,34.97
2018-03-23T18:08:53.208Z,35.57
2018-03-23T18:11:21.511Z,33.23
2018-03-23T18:13:49.827Z,34.90
2018-03-23T18:16:18.135Z,41.20
2018-03-23T18:18:46.462Z,36.20
2018-03-23T18:21:14.753Z,38.07
2018-03-23T18:23:43.091Z,37.07
2018-03-23T18:26:11.395Z,40.80
2018-03-23T18:28:39.728Z,36.90
2018-03-23T18:31:08.032Z,39.27
2018-03-23T18:33:36.364Z,35.27
2018-03-23T18:36:05.442Z,39.37
2018-03-23T18:38:33.769Z,42.27
2018-03-23T18:41:02.101Z,35.27
2018-03-23T18:43:30.399Z,39.00
2018-03-23T18:45:59.514Z,40.20
2018-03-23T18:48:27.815Z,46.10
2018-03-23T18:50:56.138Z,44.40
2018-03-23T18:53:25.222Z,43.63
2018-03-23T18:55:53.551Z,49.17
2018-03-23T18:58:21.853Z,50.47
2018-03-23T19:00:50.176Z,43.47
2018-03-23T19:03:19.254Z,41.07
2018-03-23T19:05:47.581Z,43.20
2018-03-23T19:08:15.922Z,39.93
2018-03-23T19:10:45.012Z,41.97
2018-03-23T19:13:14.070Z,41.20
2018-03-23T19:15:42.458Z,41.23
2018-03-23T19:18:10.730Z,41.37
2018-03-23T19:20:39.055Z,44.63
2018-03-23T19:23:08.125Z,36.53
2018-03-23T19:25:36.461Z,36.70
2018-03-23T19:28:04.772Z,37.73
2018-03-23T19:30:33.110Z,41.60
2018-03-23T19:33:01.417Z,43.03
2018-03-23T19:35:29.752Z,48.23
2018-03-23T19:37:58.056Z,42.13
2018-03-23T19:40:26.417Z,43.97
2018-03-23T19:42:54.717Z,41.33
2018-03-23T19:45:23.059Z,39.87
2018-03-23T19:47:51.362Z,44.53
2018-03-23T19:50:19.697Z,43.87
2018-03-23T19:52:48.766Z,46.23
2018-03-23T19:55:17.084Z,38.70
2018-03-23T20:00:09.627Z,39.17
2018-03-23T20:02:37.944Z,43.00
2018-03-23T20:05:06.279Z,44.53
2018-03-23T20:07:34.616Z,45.07
2018-03-23T20:10:02.943Z,40.40
2018-03-23T20:12:31.264Z,39.50
2018-03-23T20:14:59.588Z,42.23
2018-03-23T20:17:34.395Z,40.07
2018-03-23T20:20:02.723Z,46.23
2018-03-23T20:22:31.036Z,44.03
2018-03-23T20:24:59.354Z,49.50
2018-03-23T20:27:34.114Z,59.00
2018-03-23T20:30:02.440Z,55.67
2018-03-23T20:32:31.531Z,51.73
2018-03-23T20:34:59.860Z,45.87
2018-03-23T20:37:28.166Z,42.90
2018-03-23T20:39:57.291Z,44.20
2018-03-23T20:42:25.591Z,42.40
2018-03-23T20:44:54.675Z,48.43
2018-03-23T20:47:23.739Z,38.83
2018-03-23T20:49:52.069Z,39.83
2018-03-23T20:52:20.363Z,47.03
2018-03-23T20:54:48.689Z,45.50
2018-03-23T20:57:16.993Z,42.73
2018-03-23T20:59:46.080Z,41.67
2018-03-23T21:02:15.140Z,47.00
2018-03-23T21:04:43.465Z,42.43
2018-03-23T21:07:12.514Z,47.73
2018-03-23T21:09:40.912Z,45.97
2018-03-23T21:12:09.244Z,41.23
2018-03-23T21:14:37.567Z,42.63
2018-03-23T21:20:05.895Z,39.60
2018-03-23T21:22:34.234Z,42.60
2018-03-23T21:25:02.567Z,43.50
2018-03-23T21:27:30.877Z,48.40
2018-03-23T21:29:59.199Z,44.53
2018-03-23T21:32:28.299Z,40.83
2018-03-23T21:34:57.355Z,51.97
2018-03-23T21:37:25.695Z,49.47
2018-03-23T21:39:54.023Z,48.47
2018-03-23T21:42:22.332Z,48.10
2018-03-23T21:44:50.664Z,48.40
2018-03-23T21:47:18.968Z,45.87
2018-03-23T21:49:48.070Z,48.20
2018-03-23T21:52:17.136Z,50.37
2018-03-23T21:54:45.460Z,53.57
2018-03-23T21:57:13.755Z,59.90
2018-03-23T21:59:42.133Z,57.10
2018-03-23T22:02:10.437Z,67.90
2018-03-23T22:04:38.755Z,60.20
2018-03-23T22:07:07.831Z,53.07
2018-03-23T22:09:36.155Z,63.80
2018-03-23T22:12:04.470Z,65.20
2018-03-23T22:14:32.795Z,56.10
2018-03-23T22:17:01.864Z,52.33
2018-03-23T22:19:30.192Z,57.23
2018-03-23T22:21:58.492Z,66.40
2018-03-23T22:24:28.513Z,59.00
2018-03-23T22:26:56.891Z,49.00
2018-03-23T22:29:25.225Z,49.30
2018-03-23T22:31:53.627Z,48.23
2018-03-23T22:34:21.932Z,49.13
2018-03-23T22:36:50.247Z,51.73
2018-03-23T22:39:19.308Z,47.23
2018-03-23T22:41:47.650Z,45.20
2018-03-23T22:44:15.952Z,49.23
2018-03-23T22:46:44.281Z,54.60
2018-03-23T22:49:12.585Z,61.97
2018-03-23T22:51:40.902Z,57.27
2018-03-23T22:54:09.208Z,58.30
2018-03-23T22:56:38.299Z,52.33
2018-03-23T22:59:07.361Z,51.20
2018-03-23T23:01:35.700Z,53.80
2018-03-23T23:04:03.997Z,60.17
2018-03-23T23:06:32.350Z,45.30
2018-03-23T23:09:00.652Z,49.63
2018-03-23T23:11:28.980Z,45.63
2018-03-23T23:13:58.043Z,48.37
2018-03-23T23:16:26.359Z,47.20
2018-03-23T23:18:54.671Z,45.87
2018-03-23T23:21:22.997Z,51.83
2018-03-23T23:23:51.291Z,51.93
2018-03-23T23:26:20.379Z,52.17
2018-03-23T23:28:49.442Z,50.90
2018-03-23T23:31:17.767Z,52.43
2018-03-23T23:33:46.062Z,47.57
2018-03-23T23:36:14.395Z,53.07
2018-03-23T23:38:43.478Z,58.67
2018-03-23T23:41:11.857Z,59.10
2018-03-23T23:43:40.163Z,53.07
2018-03-23T23:46:09.251Z,59.77
2018-03-23T23:48:38.321Z,63.87
